Flight Track Log - Related Links

Times and Time Zones

All times are in EDT time to prevent confusion due to time zone crossing. See the EJA831 flight status page for this flight to view local times or setup timezone preferences in your user account.

Time Position Orientation Groundspeed Altitude Reporting Facility
EDT Latitude Longitude Course Direction KTS MPH feet Rate Location/Type
Fri 08:01:34 PM 39.9167 -105.1333 360° North 152 175 6,200  Level Denver TRACON
Fri 08:02:34 PM 39.9667 -105.1333 360° North 223 257 8,000 1,600 Climbing Denver TRACON
Fri 08:03:34 PM 40.0333 -105.0833 30° Northeast 290 334 9,400 1,419 Climbing Denver TRACON
Fri 08:04:07 PM 40.0475 -105.0247 30° Northeast 288 331 10,200 1,642 Climbing Denver Center
Fri 08:05:09 PM 40.0561 -104.9203 84° East 313 360 12,000 1,887 Climbing Denver Center
Fri 08:06:11 PM 40.0083 -104.8108 120° Southeast 326 375 14,100 1,887 Climbing Denver Center
Fri 08:07:13 PM 39.9617 -104.7047 120° Southeast 333 383 15,900 1,694 Climbing Denver Center
Fri 08:08:15 PM 39.9200 -104.5856 114° Southeast 362 417 17,600 1,645 Climbing Denver Center
Fri 08:09:17 PM 39.9008 -104.4508 100° East 375 432 19,300 1,756 Climbing Denver Center
Fri 08:10:18 PM 39.8958 -104.3358 93° East 376 433 21,200 1,790 Climbing Denver Center
Fri 08:11:21 PM 39.8886 -104.1731 93° East 370 426 23,000 864 Climbing Denver Center
Fri 08:12:23 PM 39.8803 -104.0172 94° East 398 458 23,000 683 Level Denver Center
Fri 08:13:24 PM 39.8492 -103.8761 106° East 394 453 24,400 1,610 Climbing Denver Center
Fri 08:14:26 PM 39.8094 -103.7422 111° Southeast 392 451 26,300 1,694 Climbing Denver Center
Fri 08:15:28 PM 39.7692 -103.6089 111° Southeast 394 453 27,900 1,452 Climbing Denver Center
Fri 08:16:30 PM 39.7256 -103.4708 112° Southeast 409 471 29,300 1,645 Climbing Denver Center
Fri 08:18:00 PM 39.6473 -103.3083 113° Southeast  Level FlightAware Approximate
Fri 08:18:34 PM 39.6436 -103.2031 113° Southeast 396 456 33,000  Level Denver Center
Fri 08:19:36 PM 39.5883 -103.0269 112° Southeast 437 503 33,000  Level Denver Center
Fri 08:20:38 PM 39.5392 -102.8750 113° Southeast 455 524 33,000  Level Denver Center
Fri 08:21:40 PM 39.4906 -102.7206 112° Southeast 461 531 33,000  Level Denver Center
Fri 08:22:41 PM 39.4417 -102.5661 112° Southeast 464 534 33,000  Level Denver Center
Fri 08:23:43 PM 39.3914 -102.4108 113° Southeast 467 537 33,000  Level Denver Center
Fri 08:24:45 PM 39.3406 -102.2500 112° Southeast 464 534 33,000  Level Denver Center
Fri 08:25:47 PM 39.2872 -102.0717 111° Southeast 467 537 33,000  Level Denver Center
Fri 08:26:49 PM 39.2675 -101.9142 99° East 463 533 33,000  Level Denver Center
Fri 08:27:51 PM 39.2431 -101.7325 100° East 460 529 33,000  Level Denver Center
Fri 08:28:52 PM 39.2217 -101.5794 100° East 467 537 33,000  Level Denver Center
Fri 08:29:54 PM 39.1900 -101.3967 103° East 469 540 33,000  Level Denver Center
Fri 08:30:56 PM 39.1547 -101.2417 106° East 472 543 33,000  Level Denver Center
Fri 08:31:58 PM 39.1133 -101.0600 106° East 475 547 33,000  Level Denver Center
Fri 08:33:00 PM 39.0783 -100.9067 106° East 470 541 33,000  Level Denver Center
Fri 08:34:01 PM 39.0444 -100.7514 106° East 472 543 33,000  Level Denver Center
Fri 08:35:03 PM 39.0036 -100.5717 106° East 471 542 33,000  Level Denver Center
Fri 08:36:05 PM 38.9664 -100.4083 106° East 470 541 33,000  Level Denver Center
Fri 08:37:07 PM 38.9181 -100.2594 113° Southeast 478 550 33,000  Level Denver Center
Fri 08:38:09 PM 38.8458 -100.0944 119° Southeast 476 548 33,000  Level Denver Center
Fri 08:38:44 PM 38.8042 -99.9969 119° Southeast 478 550 33,000  Level Kansas City Center
Fri 08:39:46 PM 38.7428 -99.8547 119° Southeast 478 550 33,000  Level Kansas City Center
Fri 08:40:47 PM 38.6794 -99.7103 119° Southeast 482 555 33,000  Level Kansas City Center
Fri 08:41:49 PM 38.6061 -99.5439 119° Southeast 482 555 33,000  Level Kansas City Center
Fri 08:42:51 PM 38.5414 -99.3975 119° Southeast 480 552 33,000 -484 Level Kansas City Center
Fri 08:43:53 PM 38.4761 -99.2503 119° Southeast 479 551 32,000 -1,659 Descending Kansas City Center
Fri 08:44:54 PM 38.4100 -99.1008 119° Southeast 482 555 29,600 -2,293 Descending Kansas City Center
Fri 08:45:56 PM 38.3453 -98.9539 119° Southeast 480 552 27,300 -2,419 Descending Kansas City Center
Fri 08:46:58 PM 38.2817 -98.8122 120° Southeast 467 537 24,600 -2,758 Descending Kansas City Center
Fri 08:48:00 PM 38.2203 -98.6742 119° Southeast 452 520 21,600 -3,220 Descending Kansas City Center
Fri 08:49:01 PM 38.1492 -98.5175 120° Southeast 425 489 18,000 -3,220 Descending Kansas City Center
Fri 08:50:03 PM 38.0942 -98.3958 120° Southeast 403 464 15,000 -2,710 Descending Kansas City Center
Fri 08:51:05 PM 38.0397 -98.2764 120° Southeast 394 453 12,400 -2,293 Descending Kansas City Center
Fri 08:52:06 PM 37.9886 -98.1642 120° Southeast 375 432 10,300 -1,836 Descending Kansas City Center
Fri 08:53:19 PM 37.9300 -98.0433 122° Southeast 308 354 8,300 -1,500 Descending Kansas City Center
Fri 08:54:10 PM 37.9019 -97.9756 118° Southeast 315 362 7,200 -1,540 Descending Kansas City Center
Fri 08:55:12 PM 37.8528 -97.8742 122° Southeast 302 348 5,400 -1,512 Descending Kansas City Center
Fri 08:56:13 PM 37.8033 -97.7986 130° Southeast 289 333 4,100 -683 Descending Kansas City Center
Fri 08:57:15 PM 37.7544 -97.7247 130° Southeast 282 325 4,000 -49 Descending Kansas City Center
Fri 08:58:16 PM 37.7067 -97.6528 130° Southeast 274 315 4,000  Level Kansas City Center
Fri 08:59:18 PM 37.6617 -97.5881 131° Southeast 261 300 4,000  Level Kansas City Center
Fri 09:00:23 PM 37.6167 -97.5292 134° Southeast 188 216 4,000 -439 Level Kansas City Center
Fri 09:01:21 PM 37.5839 -97.4803 130° Southeast 198 228 3,100 -850 Descending Kansas City Center
Fri 09:02:23 PM 37.5958 -97.4475 65° Northeast 161 185 2,300 -712 Descending Kansas City Center
Fri 09:03:19 PM 37.6225 -97.4358 19° North 100 115 1,700 -439 Descending Kansas City Center
Fri 09:04:26 PM 37.6542 -97.4208 21° North 114 131 1,400 -269 Descending Kansas City Center

Login

Don't have an account? Register now (free) for customized features, flight alerts, and more!